Time;durP1;ratioP1;P1;durP2;ratioP2;P2;SDS_P1;SDS_P2;PMS_P1;PMS_P2;Temp;Humidity;BMP_temperature;BMP_pressure;BME280_temperature;BME280_humidity;BME280_pressure;Samples;Min_cycle;Max_cycle;Signal;HPM_P1;HPM_P2
2021/10/06 00:00:40;;;;;;;1.33;0.93;;;;;;;18.38;54.99;95260.59;4948808;28;20051;-67
2021/10/06 00:03:05;;;;;;;1.52;0.90;;;;;;;18.00;56.64;95261.25;4947705;28;20449;-67
2021/10/06 00:05:30;;;;;;;0.70;0.70;;;;;;;17.01;58.89;95270.16;4968817;28;20519;-67
2021/10/06 00:07:56;;;;;;;1.98;0.90;;;;;;;17.66;57.48;95279.63;4970679;28;20106;-67
2021/10/06 00:10:21;;;;;;;2.47;0.55;;;;;;;17.21;58.03;95260.34;4968145;28;20039;-67
2021/10/06 00:12:47;;;;;;;1.70;0.90;;;;;;;17.80;57.26;95270.34;4965971;28;20050;-67
2021/10/06 00:15:13;;;;;;;1.98;0.93;;;;;;;17.08;58.78;95278.41;4949322;28;20528;-66
2021/10/06 00:17:40;;;;;;;0.90;0.90;;;;;;;17.63;57.19;95260.69;4955850;28;20440;-66
2021/10/06 00:20:07;;;;;;;1.00;0.90;;;;;;;16.95;58.48;95277.69;4950800;28;20048;-67
2021/10/06 00:22:33;;;;;;;1.73;0.70;;;;;;;17.22;58.22;95276.13;4949158;28;20031;-67
2021/10/06 00:24:58;;;;;;;1.15;1.05;;;;;;;18.16;55.54;95274.69;4949030;28;20680;-66
2021/10/06 00:27:24;;;;;;;1.10;0.77;;;;;;;17.32;57.11;95277.53;4949183;28;20482;-67
2021/10/06 00:29:49;;;;;;;2.50;1.25;;;;;;;17.83;55.84;95280.44;4948595;28;20082;-67
2021/10/06 00:32:14;;;;;;;2.67;1.00;;;;;;;18.23;55.46;95280.25;4951044;28;20030;-66
2021/10/06 00:34:40;;;;;;;1.33;0.95;;;;;;;17.48;57.02;95294.50;4961573;28;20513;-67
2021/10/06 00:37:06;;;;;;;1.63;1.00;;;;;;;17.17;57.30;95289.81;4967382;28;20046;-67
2021/10/06 00:39:31;;;;;;;1.00;0.93;;;;;;;17.51;56.89;95299.19;4966592;28;20042;-67
2021/10/06 00:41:56;;;;;;;3.28;0.95;;;;;;;17.30;56.87;95312.03;4968402;28;20464;-67
2021/10/06 00:44:22;;;;;;;1.70;1.10;;;;;;;17.44;56.35;95307.06;4956003;28;20035;-67
2021/10/06 00:46:48;;;;;;;1.17;0.90;;;;;;;16.81;58.82;95307.59;4955992;28;20385;-67
2021/10/06 00:49:15;;;;;;;3.00;0.90;;;;;;;17.12;58.43;95308.88;4963526;28;20057;-67
2021/10/06 00:51:40;;;;;;;2.08;1.20;;;;;;;17.55;56.97;95326.94;4971910;28;20046;-67
2021/10/06 00:54:06;;;;;;;1.10;0.88;;;;;;;17.73;56.77;95322.09;4971694;28;20042;-67
2021/10/06 00:56:32;;;;;;;1.90;0.90;;;;;;;17.05;58.30;95314.84;4971821;28;20031;-67
2021/10/06 00:58:58;;;;;;;1.40;1.02;;;;;;;16.49;60.01;95317.38;4961698;28;20054;-66
2021/10/06 01:01:23;;;;;;;2.05;0.70;;;;;;;17.47;57.23;95319.06;4954750;28;20397;-67
2021/10/06 01:03:49;;;;;;;1.17;0.75;;;;;;;16.89;58.10;95316.69;4963355;28;20034;-66
2021/10/06 01:06:14;;;;;;;1.30;0.90;;;;;;;16.57;59.75;95332.56;4971776;28;20568;-67
2021/10/06 01:08:41;;;;;;;1.70;0.73;;;;;;;17.00;57.73;95315.06;4971129;28;20031;-66
2021/10/06 01:11:08;;;;;;;3.00;1.10;;;;;;;17.46;56.70;95330.94;4972416;28;20063;-66
2021/10/06 01:13:33;;;;;;;1.88;0.93;;;;;;;17.23;56.87;95333.38;4965027;28;20150;-68
2021/10/06 01:15:59;;;;;;;1.23;0.60;;;;;;;17.24;57.17;95338.38;4952146;28;20481;-67
2021/10/06 01:18:25;;;;;;;2.15;0.98;;;;;;;17.87;55.86;95346.69;4977701;28;20045;-68
2021/10/06 01:20:51;;;;;;;3.47;1.00;;;;;;;17.91;55.19;95344.06;4971555;28;20050;-67
2021/10/06 01:23:17;;;;;;;1.40;1.10;;;;;;;18.05;54.87;95332.88;4973497;28;20059;-67
2021/10/06 01:25:43;;;;;;;1.42;0.60;;;;;;;17.32;56.24;95345.53;4971557;28;20047;-67
2021/10/06 01:28:08;;;;;;;2.22;0.90;;;;;;;16.22;59.07;95348.31;4969013;28;20046;-67
2021/10/06 01:30:34;;;;;;;2.22;1.10;;;;;;;16.87;57.60;95335.03;4950115;28;20039;-67
2021/10/06 01:32:59;;;;;;;2.97;1.20;;;;;;;17.73;56.08;95337.44;4974417;28;20035;-67
2021/10/06 01:35:25;;;;;;;1.65;0.82;;;;;;;18.18;54.81;95337.84;4972493;28;20035;-67
2021/10/06 01:37:50;;;;;;;1.70;0.70;;;;;;;17.85;54.93;95343.53;4971136;28;20065;-67
2021/10/06 01:40:22;;;;;;;0.90;0.80;;;;;;;18.16;54.24;95334.69;4970840;28;20041;-68
2021/10/06 01:42:50;;;;;;;2.53;0.90;;;;;;;18.37;53.88;95345.19;4971032;28;20041;-67
2021/10/06 01:45:21;;;;;;;0.73;0.73;;;;;;;18.56;53.51;95336.41;4952065;28;20491;-66
2021/10/06 01:47:46;;;;;;;1.60;0.90;;;;;;;18.72;53.45;95332.94;4957315;28;20027;-67
2021/10/06 01:50:18;;;;;;;2.15;0.85;;;;;;;18.74;52.70;95341.47;4954210;28;20034;-68
2021/10/06 01:52:44;;;;;;;;;;;;;;;18.81;52.52;95344.31;4951975;28;20046;-67
2021/10/06 01:55:09;;;;;;;1.13;1.00;;;;;;;18.58;53.05;95336.06;4951659;28;20400;-67
2021/10/06 01:57:35;;;;;;;1.83;0.82;;;;;;;18.76;52.75;95334.59;4951042;28;20051;-67
2021/10/06 02:00:01;;;;;;;1.88;0.98;;;;;;;18.80;52.89;95338.16;4950240;28;20032;-67
2021/10/06 02:02:26;;;;;;;2.03;0.80;;;;;;;18.88;52.66;95333.69;4961193;28;20023;-67
2021/10/06 02:04:52;;;;;;;2.70;1.58;;;;;;;19.00;52.32;95338.97;4965448;28;20130;-67
2021/10/06 02:07:17;;;;;;;1.00;0.95;;;;;;;19.03;52.32;95326.69;4970762;28;20066;-67
2021/10/06 02:09:42;;;;;;;3.53;1.40;;;;;;;19.15;52.27;95350.84;4970343;28;20027;-67
2021/10/06 02:12:08;;;;;;;3.05;0.77;;;;;;;19.07;51.99;95344.50;4970789;28;20118;-67
2021/10/06 02:14:33;;;;;;;1.98;0.73;;;;;;;19.15;52.05;95351.63;4958305;28;20027;-67
2021/10/06 02:16:58;;;;;;;1.30;0.88;;;;;;;19.06;51.76;95337.56;4952935;28;20015;-72
2021/10/06 02:19:24;;;;;;;1.73;0.77;;;;;;;18.83;51.76;95355.53;4958590;28;20043;-67
2021/10/06 02:21:49;;;;;;;2.15;0.95;;;;;;;19.06;51.62;95342.19;4951139;28;20047;-67
2021/10/06 02:24:15;;;;;;;2.75;1.00;;;;;;;19.04;51.42;95341.72;4949423;28;20051;-67
2021/10/06 02:26:40;;;;;;;2.97;0.90;;;;;;;18.99;51.76;95352.78;4951110;28;20058;-67
2021/10/06 02:29:05;;;;;;;1.38;0.70;;;;;;;18.77;51.94;95354.22;4952139;28;20366;-67
2021/10/06 02:31:31;;;;;;;1.25;1.15;;;;;;;18.85;51.62;95345.19;4950687;28;20063;-68
2021/10/06 02:33:56;;;;;;;3.58;1.20;;;;;;;17.97;52.68;95353.47;4958281;28;20650;-67
2021/10/06 02:36:22;;;;;;;1.95;0.43;;;;;;;18.30;52.55;95358.50;4967784;28;20042;-67
2021/10/06 02:38:47;;;;;;;0.98;0.55;;;;;;;18.50;52.57;95342.44;4969445;28;20069;-67
2021/10/06 02:41:12;;;;;;;2.67;0.77;;;;;;;18.60;52.01;95342.69;4970810;28;20027;-68
2021/10/06 02:43:38;;;;;;;1.95;0.82;;;;;;;18.67;51.74;95359.00;4966122;28;20031;-67
2021/10/06 02:46:03;;;;;;;1.67;0.68;;;;;;;18.68;51.89;95355.22;4950258;28;20575;-67
2021/10/06 02:48:29;;;;;;;3.60;1.10;;;;;;;18.23;51.54;95350.25;4957546;28;20493;-67
2021/10/06 02:50:54;;;;;;;1.75;0.65;;;;;;;18.35;51.94;95354.78;4964979;28;20137;-67
2021/10/06 02:53:20;;;;;;;1.65;0.68;;;;;;;18.35;51.84;95350.16;4971756;28;20089;-67
2021/10/06 02:55:45;;;;;;;1.67;0.60;;;;;;;18.51;51.59;95347.47;4970365;28;20425;-68
2021/10/06 02:58:10;;;;;;;3.85;0.68;;;;;;;17.39;54.00;95366.47;4969895;28;20129;-67
2021/10/06 03:00:36;;;;;;;2.42;0.70;;;;;;;18.16;52.62;95367.00;4950825;28;20497;-66
2021/10/06 03:03:02;;;;;;;2.15;1.10;;;;;;;18.36;52.14;95365.19;4950120;28;20039;-66
2021/10/06 03:05:27;;;;;;;0.40;0.40;;;;;;;17.89;52.57;95363.25;4960209;28;20027;-67
2021/10/06 03:07:52;;;;;;;2.47;0.77;;;;;;;18.09;52.16;95368.75;4950263;28;20054;-66
2021/10/06 03:10:18;;;;;;;2.38;0.88;;;;;;;17.20;54.55;95368.97;4949425;28;20645;-67
2021/10/06 03:12:44;;;;;;;3.47;0.70;;;;;;;17.83;53.01;95359.25;4949901;28;20035;-66
2021/10/06 03:15:10;;;;;;;2.90;0.75;;;;;;;17.72;52.66;95362.75;4949691;28;20031;-66
2021/10/06 03:17:36;;;;;;;4.43;0.90;;;;;;;17.32;53.87;95363.59;4953988;28;20165;-66
2021/10/06 03:20:04;;;;;;;2.05;1.20;;;;;;;17.64;53.59;95369.84;4961438;28;20022;-67
2021/10/06 03:22:29;;;;;;;2.17;0.77;;;;;;;17.97;52.98;95379.59;4969275;28;20042;-66
2021/10/06 03:24:55;;;;;;;2.97;1.25;;;;;;;17.86;52.78;95382.78;4969083;28;20042;-67
2021/10/06 03:27:20;;;;;;;2.70;0.82;;;;;;;18.05;52.49;95392.09;4967666;28;20089;-67
2021/10/06 03:29:45;;;;;;;2.00;0.68;;;;;;;18.18;52.48;95382.84;4957551;28;20385;-67
2021/10/06 03:32:11;;;;;;;1.25;0.73;;;;;;;18.24;52.10;95381.44;4951470;28;20074;-67
2021/10/06 03:34:37;;;;;;;2.25;1.33;;;;;;;18.29;52.09;95385.78;4957149;28;20062;-66
2021/10/06 03:37:02;;;;;;;3.15;0.80;;;;;;;18.33;51.85;95395.53;4949832;28;20118;-66
2021/10/06 03:39:28;;;;;;;1.77;1.00;;;;;;;17.93;52.12;95401.81;4947922;28;20065;-66
2021/10/06 03:41:53;;;;;;;2.83;0.77;;;;;;;16.64;55.20;95401.84;4949578;28;20078;-67
2021/10/06 03:44:18;;;;;;;2.30;1.00;;;;;;;15.95;57.56;95405.31;4950983;28;20027;-67
2021/10/06 03:46:44;;;;;;;5.07;1.00;;;;;;;17.40;53.68;95402.97;4964914;28;20035;-67
2021/10/06 03:49:09;;;;;;;4.85;0.98;;;;;;;17.26;53.61;95405.28;4965232;28;20045;-67
2021/10/06 03:51:35;;;;;;;3.20;1.05;;;;;;;17.59;53.61;95405.84;4948647;28;20486;-66
2021/10/06 03:54:00;;;;;;;1.27;0.73;;;;;;;17.48;53.60;95418.19;4949736;28;20036;-67
2021/10/06 03:56:25;;;;;;;4.18;0.98;;;;;;;17.76;52.93;95418.25;4951809;28;20023;-66
2021/10/06 03:58:51;;;;;;;1.55;0.90;;;;;;;16.68;55.23;95426.09;4948948;28;20039;-66
2021/10/06 04:01:16;;;;;;;2.97;1.00;;;;;;;17.03;54.25;95421.09;4949327;28;20058;-67
2021/10/06 04:03:41;;;;;;;4.40;0.90;;;;;;;17.65;53.24;95428.66;4954064;28;20554;-66
2021/10/06 04:06:07;;;;;;;1.85;0.80;;;;;;;17.31;53.12;95419.25;4952351;28;20055;-69
2021/10/06 04:08:33;;;;;;;3.47;0.80;;;;;;;17.44;53.62;95436.13;4949186;28;20032;-67
2021/10/06 04:10:58;;;;;;;3.63;0.95;;;;;;;17.84;52.79;95435.38;4951209;28;20031;-67
2021/10/06 04:13:24;;;;;;;3.47;1.83;;;;;;;18.12;52.26;95444.22;4949332;28;20114;-68
2021/10/06 04:15:49;;;;;;;6.40;1.65;;;;;;;18.16;51.92;95437.00;4948681;28;20093;-67
2021/10/06 04:18:15;;;;;;;4.30;1.40;;;;;;;18.22;51.74;95442.94;4953856;28;20051;-67
2021/10/06 04:20:40;;;;;;;5.80;1.27;;;;;;;18.23;51.74;95439.13;4967753;28;20081;-67
2021/10/06 04:23:06;;;;;;;2.60;1.50;;;;;;;18.33;51.74;95444.00;4973765;28;20097;-67
2021/10/06 04:25:32;;;;;;;3.63;1.77;;;;;;;18.34;51.70;95452.84;4971268;28;20590;-65
2021/10/06 04:27:57;;;;;;;3.13;2.00;;;;;;;18.35;51.47;95444.41;4972462;28;20035;-67
2021/10/06 04:30:23;;;;;;;2.35;1.60;;;;;;;18.36;51.28;95431.75;4950938;28;20589;-70
2021/10/06 04:32:48;;;;;;;4.25;1.83;;;;;;;18.36;50.94;95442.50;4941833;28;27461;-67
2021/10/06 04:35:14;;;;;;;4.35;1.63;;;;;;;18.33;51.10;95445.91;4966132;28;20058;-70
2021/10/06 04:37:39;;;;;;;3.13;1.23;;;;;;;18.43;51.05;95458.88;4972641;28;20038;-71
2021/10/06 04:40:07;;;;;;;1.48;1.10;;;;;;;18.44;50.91;95463.13;4970505;28;20047;-72
2021/10/06 04:42:32;;;;;;;4.22;1.42;;;;;;;18.41;50.80;95453.03;4972122;28;20041;-69
2021/10/06 04:44:58;;;;;;;1.58;1.00;;;;;;;18.39;50.73;95449.91;4962052;28;20039;-69
2021/10/06 04:47:23;;;;;;;2.45;1.13;;;;;;;18.41;50.59;95453.03;4955710;28;20039;-68
2021/10/06 04:49:48;;;;;;;3.90;1.08;;;;;;;18.42;50.76;95460.75;4963809;28;20030;-67
2021/10/06 04:52:14;;;;;;;6.15;1.20;;;;;;;18.32;50.50;95455.09;4972299;28;20125;-67
2021/10/06 04:54:39;;;;;;;2.92;0.65;;;;;;;18.37;50.42;95463.69;4972001;28;20043;-66
2021/10/06 04:57:05;;;;;;;1.58;0.90;;;;;;;18.42;50.37;95470.75;4972115;28;20672;-67
2021/10/06 04:59:30;;;;;;;3.35;1.00;;;;;;;18.46;50.43;95471.63;4966034;28;20035;-66
2021/10/06 05:01:56;;;;;;;1.55;0.95;;;;;;;18.47;50.58;95481.28;4954320;28;20019;-65
2021/10/06 05:04:22;;;;;;;2.72;1.20;;;;;;;18.43;50.34;95481.19;4968229;28;20733;-67
2021/10/06 05:06:47;;;;;;;2.85;1.05;;;;;;;18.35;50.40;95476.75;4952558;28;20047;-65
2021/10/06 05:09:15;;;;;;;2.30;1.25;;;;;;;18.40;50.31;95487.25;4952025;28;20094;-68
2021/10/06 05:11:41;;;;;;;3.78;1.10;;;;;;;18.36;50.22;95481.00;4952389;28;20110;-67
2021/10/06 05:14:06;;;;;;;3.72;1.17;;;;;;;18.34;50.46;95477.09;4953372;28;20031;-67
2021/10/06 05:16:31;;;;;;;2.55;0.80;;;;;;;18.41;50.25;95485.34;4950831;28;20118;-67
2021/10/06 05:18:57;;;;;;;4.05;1.55;;;;;;;18.39;50.14;95476.84;4959676;28;21033;-67
2021/10/06 05:21:22;;;;;;;4.10;1.00;;;;;;;18.43;49.90;95494.66;4952416;28;20031;-66
2021/10/06 05:23:47;;;;;;;3.17;1.40;;;;;;;18.35;49.92;95481.34;4951637;28;20058;-67
2021/10/06 05:26:13;;;;;;;5.18;1.13;;;;;;;18.32;49.99;95482.81;4953821;28;20042;-66
2021/10/06 05:28:40;;;;;;;3.42;0.93;;;;;;;18.34;49.91;95496.72;4966833;28;20057;-66
2021/10/06 05:31:06;;;;;;;3.05;0.95;;;;;;;18.36;49.80;95499.06;4951577;28;20421;-67
2021/10/06 05:33:31;;;;;;;6.60;1.85;;;;;;;18.29;50.14;95499.66;4959046;28;20051;-66
2021/10/06 05:35:57;;;;;;;2.92;0.85;;;;;;;18.34;49.92;95514.78;4965670;28;20035;-66
2021/10/06 05:38:22;;;;;;;4.43;0.93;;;;;;;18.20;49.87;95504.41;4972820;28;20030;-67
2021/10/06 05:40:48;;;;;;;2.67;0.98;;;;;;;18.19;50.01;95517.09;4970423;28;20393;-66
2021/10/06 05:43:13;;;;;;;2.45;0.95;;;;;;;17.98;50.04;95507.66;4970669;28;20770;-67
2021/10/06 05:45:39;;;;;;;3.10;0.82;;;;;;;18.09;50.04;95519.50;4957620;28;20118;-66
2021/10/06 05:48:06;;;;;;;2.05;0.70;;;;;;;18.23;49.87;95522.59;4959219;28;20034;-67
2021/10/06 05:50:31;;;;;;;1.75;0.80;;;;;;;18.31;49.78;95513.56;4958696;28;20034;-66
2021/10/06 05:52:58;;;;;;;4.10;1.20;;;;;;;18.38;49.46;95529.16;4952956;28;20027;-67
2021/10/06 05:55:24;;;;;;;3.72;0.82;;;;;;;18.19;49.36;95524.41;4951729;28;20126;-71
2021/10/06 05:57:51;;;;;;;2.40;0.70;;;;;;;18.35;49.47;95530.59;4950299;28;20565;-71
2021/10/06 06:00:16;;;;;;;1.63;0.90;;;;;;;18.54;49.10;95529.19;4950572;28;20039;-67
2021/10/06 06:02:44;;;;;;;2.80;1.05;;;;;;;18.61;48.99;95546.28;4950755;28;20019;-67
2021/10/06 06:05:09;;;;;;;4.80;1.63;;;;;;;18.68;49.03;95543.84;4952973;28;20031;-67
2021/10/06 06:07:35;;;;;;;3.40;0.93;;;;;;;18.72;49.24;95545.81;4968214;28;20563;-68
2021/10/06 06:10:00;;;;;;;2.25;1.02;;;;;;;18.78;49.25;95544.44;4970521;28;20037;-71
2021/10/06 06:12:26;;;;;;;4.88;1.20;;;;;;;18.82;48.66;95554.19;4970666;28;20053;-70
2021/10/06 06:14:51;;;;;;;4.07;1.15;;;;;;;18.30;49.26;95555.09;4964408;28;20493;-73
2021/10/06 06:17:17;;;;;;;2.78;1.35;;;;;;;18.27;49.31;95563.06;4951481;28;20031;-69
2021/10/06 06:19:42;;;;;;;2.03;0.93;;;;;;;18.25;48.75;95557.25;4958552;28;20035;-70
2021/10/06 06:22:08;;;;;;;3.05;0.88;;;;;;;18.50;48.64;95557.94;4950688;28;20043;-70
2021/10/06 06:24:34;;;;;;;3.92;1.35;;;;;;;18.75;48.64;95561.31;4950714;28;20032;-68
2021/10/06 06:27:00;;;;;;;2.80;1.00;;;;;;;18.91;48.23;95564.81;4949533;28;20047;-70
2021/10/06 06:29:26;;;;;;;2.40;1.27;;;;;;;18.84;47.59;95567.31;4951702;28;20027;-70
2021/10/06 06:31:51;;;;;;;3.33;1.17;;;;;;;19.07;47.73;95579.06;4949651;28;20038;-71
2021/10/06 06:34:17;;;;;;;1.95;1.05;;;;;;;19.20;47.23;95582.47;4959746;28;20078;-71
2021/10/06 06:36:42;;;;;;;3.65;1.10;;;;;;;19.24;46.93;95586.03;4955591;28;20032;-68
2021/10/06 06:39:07;;;;;;;3.45;1.10;;;;;;;19.35;46.25;95584.41;4948990;28;20126;-71
2021/10/06 06:41:33;;;;;;;2.38;0.85;;;;;;;19.23;45.85;95596.03;4950791;28;20028;-69
2021/10/06 06:44:00;;;;;;;3.17;0.85;;;;;;;19.22;46.67;95594.47;4951460;28;20035;-69
2021/10/06 06:46:25;;;;;;;2.28;0.80;;;;;;;19.16;46.37;95589.69;4948675;28;20048;-69
2021/10/06 06:48:51;;;;;;;2.88;1.20;;;;;;;19.35;46.37;95597.09;4956214;28;20059;-70
2021/10/06 06:51:16;;;;;;;2.30;0.57;;;;;;;18.89;46.33;95597.50;4952247;28;20043;-69
2021/10/06 06:53:41;;;;;;;1.55;0.60;;;;;;;19.15;46.56;95607.00;4950404;28;20038;-71
2021/10/06 06:56:07;;;;;;;2.95;1.00;;;;;;;18.81;46.74;95606.53;4952507;28;20074;-68
2021/10/06 06:58:32;;;;;;;2.75;0.90;;;;;;;19.10;47.02;95597.25;4950461;28;20514;-70
2021/10/06 07:00:58;;;;;;;2.17;0.70;;;;;;;19.19;46.18;95611.38;4949598;28;20076;-69
2021/10/06 07:03:23;;;;;;;5.63;0.90;;;;;;;19.17;46.06;95610.13;4952108;28;20039;-71
2021/10/06 07:05:49;;;;;;;2.15;0.88;;;;;;;19.15;47.11;95605.09;4961576;28;20042;-70
2021/10/06 07:08:14;;;;;;;1.38;0.65;;;;;;;18.80;46.72;95610.34;4971549;28;20106;-70
2021/10/06 07:10:40;;;;;;;3.70;0.85;;;;;;;18.37;47.92;95616.44;4969495;28;20043;-70
2021/10/06 07:13:05;;;;;;;5.30;1.17;;;;;;;18.67;47.70;95612.28;4969464;28;20038;-65
2021/10/06 07:15:31;;;;;;;2.38;0.80;;;;;;;18.65;47.26;95619.16;4960040;28;20063;-65
2021/10/06 07:17:57;;;;;;;3.50;1.00;;;;;;;18.87;46.85;95615.13;4949581;28;20149;-66
2021/10/06 07:20:22;;;;;;;2.30;1.00;;;;;;;19.22;46.61;95623.38;4951027;28;20038;-66
2021/10/06 07:22:48;;;;;;;1.35;0.90;;;;;;;19.33;46.54;95615.53;4968271;28;20031;-65
2021/10/06 07:25:15;;;;;;;3.05;0.90;;;;;;;19.46;46.13;95630.50;4967752;28;20674;-67
2021/10/06 07:27:40;;;;;;;1.02;0.52;;;;;;;19.42;45.91;95614.22;4967949;28;20600;-71
2021/10/06 07:30:06;;;;;;;1.88;0.75;;;;;;;19.58;45.94;95626.94;4962669;28;20035;-68
2021/10/06 07:32:32;;;;;;;2.20;0.70;;;;;;;19.87;45.72;95623.00;4950048;28;20504;-67
2021/10/06 07:34:58;;;;;;;3.30;0.80;;;;;;;19.98;45.00;95634.81;4958816;28;20062;-67
2021/10/06 07:37:23;;;;;;;2.58;0.85;;;;;;;20.18;44.43;95632.94;4949977;28;20106;-68
2021/10/06 07:39:49;;;;;;;1.80;0.73;;;;;;;20.46;43.99;95624.66;4948101;28;20035;-68
2021/10/06 07:42:15;;;;;;;2.10;0.70;;;;;;;20.78;43.47;95628.03;4949911;28;20054;-68
2021/10/06 07:44:42;;;;;;;3.17;0.60;;;;;;;20.90;42.73;95616.28;4948853;28;20525;-68
2021/10/06 07:47:07;;;;;;;1.45;0.75;;;;;;;21.22;42.35;95635.78;4950893;28;20586;-69
2021/10/06 07:49:33;;;;;;;2.60;0.70;;;;;;;21.37;42.27;95636.84;4956635;28;20027;-69
2021/10/06 07:51:59;;;;;;;2.40;0.70;;;;;;;21.44;41.83;95628.81;4964569;28;20034;-68
2021/10/06 07:54:24;;;;;;;1.95;0.80;;;;;;;21.29;42.00;95631.28;4968415;28;20046;-68
2021/10/06 07:56:49;;;;;;;1.42;0.50;;;;;;;21.15;41.07;95620.22;4967500;28;20038;-69
2021/10/06 07:59:15;;;;;;;3.55;0.68;;;;;;;21.47;41.67;95626.19;4968822;28;20027;-69
2021/10/06 08:01:40;;;;;;;1.42;0.75;;;;;;;21.32;41.28;95634.44;4952179;28;20043;-68
2021/10/06 08:04:06;;;;;;;1.98;0.70;;;;;;;20.31;41.99;95633.59;4956899;28;20090;-69
2021/10/06 08:06:31;;;;;;;2.60;0.98;;;;;;;20.06;43.74;95636.53;4960829;28;20074;-69
2021/10/06 08:08:56;;;;;;;2.70;0.73;;;;;;;20.14;43.57;95638.28;4968473;28;20397;-71
2021/10/06 08:11:22;;;;;;;2.80;0.70;;;;;;;20.66;42.89;95639.75;4970855;28;20023;-68
2021/10/06 08:13:48;;;;;;;1.80;0.80;;;;;;;21.21;42.18;95639.63;4968454;28;20035;-69
2021/10/06 08:16:13;;;;;;;2.05;0.70;;;;;;;21.37;42.01;95626.78;4954422;28;20518;-68
2021/10/06 08:18:39;;;;;;;2.35;0.77;;;;;;;21.57;41.36;95640.25;4953245;28;20038;-68
2021/10/06 08:21:04;;;;;;;2.80;0.80;;;;;;;20.49;42.24;95638.28;4959187;28;20043;-67
2021/10/06 08:23:31;;;;;;;2.95;0.73;;;;;;;20.15;43.62;95645.22;4966986;28;20031;-67
2021/10/06 08:25:57;;;;;;;2.22;0.65;;;;;;;20.80;42.68;95639.25;4970096;28;20033;-68
2021/10/06 08:28:23;;;;;;;2.60;0.55;;;;;;;20.00;44.21;95648.75;4968574;28;20046;-68
2021/10/06 08:30:48;;;;;;;1.98;0.98;;;;;;;20.67;43.34;95645.94;4959565;28;20581;-68
2021/10/06 08:33:15;;;;;;;3.42;0.90;;;;;;;20.60;43.07;95652.00;4950342;28;20055;-68
2021/10/06 08:35:41;;;;;;;2.47;0.70;;;;;;;20.63;43.01;95637.78;4959016;28;20023;-67
2021/10/06 08:38:08;;;;;;;2.40;0.63;;;;;;;19.69;44.17;95661.16;4970327;28;20496;-68
2021/10/06 08:40:36;;;;;;;2.83;0.98;;;;;;;20.06;43.53;95650.03;4968159;28;20050;-68
2021/10/06 08:43:04;;;;;;;2.20;0.90;;;;;;;19.15;45.14;95667.13;4966760;28;20053;-68
2021/10/06 08:45:29;;;;;;;2.53;0.82;;;;;;;18.90;45.45;95652.19;4962966;28;20058;-68
2021/10/06 08:47:56;;;;;;;1.70;0.65;;;;;;;19.47;45.49;95676.03;4949131;28;20031;-68
2021/10/06 08:50:22;;;;;;;3.33;0.80;;;;;;;20.13;44.19;95655.63;4960760;28;20065;-68
2021/10/06 08:52:49;;;;;;;3.78;1.10;;;;;;;20.61;43.91;95658.19;4968083;28;20066;-68
2021/10/06 08:55:27;;;;;;;4.88;1.05;;;;;;;19.27;44.68;95662.78;4967952;28;20031;-69
2021/10/06 08:57:53;;;;;;;2.78;0.85;;;;;;;18.04;48.06;95682.03;4968413;28;20077;-69
2021/10/06 09:00:18;;;;;;;4.00;1.02;;;;;;;19.34;45.07;95655.63;4964314;28;20032;-69
2021/10/06 09:02:43;;;;;;;1.60;0.85;;;;;;;19.12;45.09;95654.31;4948276;28;20026;-68
2021/10/06 09:05:11;;;;;;;2.60;0.70;;;;;;;19.86;43.83;95672.72;4950369;28;20039;-68
2021/10/06 09:08:00;;;;;;;2.63;1.23;;;;;;;20.59;42.62;95680.16;4950064;28;20059;-68
2021/10/06 09:10:28;;;;;;;1.30;0.60;;;;;;;18.29;45.09;95690.09;4952044;28;20126;-69
2021/10/06 09:12:55;;;;;;;2.60;0.70;;;;;;;17.41;46.79;95686.91;4952154;28;20043;-68
2021/10/06 09:15:20;;;;;;;3.78;1.10;;;;;;;18.61;45.44;95683.69;4951922;28;20058;-68
2021/10/06 09:17:53;;;;;;;3.20;1.10;;;;;;;19.11;45.24;95690.50;4951917;28;20015;-70
2021/10/06 09:20:19;;;;;;;2.60;0.80;;;;;;;20.43;42.70;95684.81;4968394;28;20018;-69
2021/10/06 09:22:59;;;;;;;1.80;0.50;;;;;;;18.22;45.55;95700.63;4951895;28;20393;-69
2021/10/06 09:25:27;;;;;;;1.90;0.80;;;;;;;18.56;45.69;95685.84;4952206;28;20043;-69
2021/10/06 09:27:52;;;;;;;3.97;0.90;;;;;;;20.72;42.86;95687.00;4952146;28;20118;-68
2021/10/06 09:30:18;;;;;;;3.30;0.80;;;;;;;21.07;41.52;95686.13;4950925;28;20143;-68
2021/10/06 09:32:45;;;;;;;2.65;0.57;;;;;;;20.61;41.66;95709.53;4951216;28;20034;-67
2021/10/06 09:35:19;;;;;;;1.63;0.77;;;;;;;20.83;42.02;95698.03;4962709;28;20445;-68
2021/10/06 09:37:49;;;;;;;3.35;0.80;;;;;;;21.67;41.40;95694.56;4986178;28;20031;-67
2021/10/06 09:40:17;;;;;;;1.67;0.70;;;;;;;22.28;39.18;95687.41;4970841;28;20196;-67
2021/10/06 09:42:48;;;;;;;1.45;0.75;;;;;;;22.30;38.47;95694.03;4970562;28;20078;-67
2021/10/06 09:45:23;;;;;;;9.95;1.48;;;;;;;22.34;38.75;95698.72;4969559;28;20562;-67
2021/10/06 09:48:06;;;;;;;2.90;0.80;;;;;;;22.42;39.58;95706.59;4951556;28;20448;-67
2021/10/06 09:50:34;;;;;;;1.73;0.65;;;;;;;22.50;38.55;95708.25;4943265;28;20023;-65
2021/10/06 09:53:08;;;;;;;3.10;0.80;;;;;;;22.96;37.95;95701.88;4968403;28;20019;-67
2021/10/06 09:55:36;;;;;;;2.80;0.63;;;;;;;23.17;37.05;95695.91;4970241;28;20121;-70
2021/10/06 09:58:01;;;;;;;1.70;0.52;;;;;;;23.28;36.37;95692.16;4969626;28;20070;-70
2021/10/06 10:00:28;;;;;;;1.90;0.88;;;;;;;23.85;35.82;95709.03;4968041;28;20081;-68
2021/10/06 10:02:54;;;;;;;2.55;0.80;;;;;;;22.70;37.17;95719.75;4951016;28;20043;-67
2021/10/06 10:05:19;;;;;;;2.60;0.70;;;;;;;22.46;38.73;95717.47;4960933;28;20031;-69
2021/10/06 10:07:45;;;;;;;3.28;0.70;;;;;;;23.11;38.18;95708.25;4951097;28;20046;-66
2021/10/06 10:10:12;;;;;;;2.50;0.80;;;;;;;19.50;43.61;95715.03;4950443;28;20043;-69
2021/10/06 10:12:37;;;;;;;1.75;0.70;;;;;;;19.11;45.63;95717.47;4950851;28;20053;-67
2021/10/06 10:15:03;;;;;;;1.25;0.55;;;;;;;18.30;46.53;95719.34;4948843;28;20106;-66
2021/10/06 10:17:29;;;;;;;1.90;0.70;;;;;;;19.40;44.87;95720.94;4952333;28;20019;-67
2021/10/06 10:20:00;;;;;;;2.20;0.63;;;;;;;18.81;46.35;95727.03;4956381;28;20571;-67
2021/10/06 10:22:30;;;;;;;2.60;0.55;;;;;;;17.67;49.07;95722.38;4962352;28;20030;-67
2021/10/06 10:24:56;;;;;;;2.90;0.98;;;;;;;18.53;46.04;95722.34;4969669;28;20077;-67
2021/10/06 10:27:24;;;;;;;1.70;0.70;;;;;;;16.29;50.95;95723.59;4970313;28;20043;-67
2021/10/06 10:29:51;;;;;;;1.42;0.60;;;;;;;19.30;45.43;95724.91;4969799;28;21385;-66
2021/10/06 10:32:18;;;;;;;2.55;0.57;;;;;;;19.99;42.57;95722.78;4955809;28;20039;-68
2021/10/06 10:34:56;;;;;;;3.40;0.90;;;;;;;21.41;38.88;95719.66;4955578;28;20604;-67
2021/10/06 10:37:50;;;;;;;1.38;0.70;;;;;;;22.10;37.44;95714.22;4950088;28;20078;-68
2021/10/06 10:40:34;;;;;;;2.15;0.95;;;;;;;20.07;39.33;95724.53;4964530;28;20042;-67
2021/10/06 10:43:00;;;;;;;3.83;1.00;;;;;;;20.73;38.98;95728.34;4969545;28;20043;-67
2021/10/06 10:45:37;;;;;;;1.27;0.60;;;;;;;20.53;38.11;95708.63;4968963;28;20676;-67
2021/10/06 10:48:04;;;;;;;3.22;0.63;;;;;;;19.87;40.05;95710.19;4946774;28;20481;-67
2021/10/06 10:50:44;;;;;;;2.50;0.60;;;;;;;20.27;39.83;95717.28;4956513;28;20027;-67
2021/10/06 10:53:11;;;;;;;2.42;0.73;;;;;;;19.25;40.78;95713.59;4968860;28;20564;-67
2021/10/06 10:55:55;;;;;;;2.33;0.57;;;;;;;20.59;38.38;95712.59;4969596;28;20043;-67
2021/10/06 10:58:30;;;;;;;1.55;0.63;;;;;;;19.00;41.72;95712.91;4969668;28;20097;-67
2021/10/06 11:01:00;;;;;;;1.42;0.50;;;;;;;19.90;40.00;95714.09;4965209;28;20130;-68
2021/10/06 11:03:26;;;;;;;1.23;0.47;;;;;;;19.61;38.54;95691.81;4949594;28;20122;-68
2021/10/06 11:05:57;;;;;;;1.85;0.52;;;;;;;17.65;42.60;95700.38;4948677;28;20039;-68
2021/10/06 11:08:25;;;;;;;1.17;0.40;;;;;;;19.76;39.68;95698.34;4970484;28;20050;-68
2021/10/06 11:11:09;;;;;;;2.05;0.70;;;;;;;19.83;39.68;95703.13;4969122;28;20042;-68
2021/10/06 11:13:38;;;;;;;3.38;0.80;;;;;;;18.94;41.40;95701.59;4969017;28;20055;-68
2021/10/06 11:16:05;;;;;;;2.22;0.50;;;;;;;20.86;39.11;95696.53;4964624;28;20066;-68
2021/10/06 11:18:50;;;;;;;1.85;0.50;;;;;;;21.56;37.57;95688.19;4942034;28;20441;-69
2021/10/06 11:21:40;;;;;;;9.07;6.43;;;;;;;22.38;36.31;95692.22;4959308;28;20609;-68
2021/10/06 11:24:22;;;;;;;4.25;1.50;;;;;;;23.01;35.23;95687.97;4969034;28;20039;-68
2021/10/06 11:26:57;;;;;;;1.33;0.57;;;;;;;23.15;33.87;95688.16;4969092;28;20106;-69
2021/10/06 11:29:22;;;;;;;2.20;0.63;;;;;;;22.34;32.77;95671.63;4970718;28;20027;-68
2021/10/06 11:31:48;;;;;;;3.47;0.90;;;;;;;22.33;34.14;95686.31;4959155;28;20367;-69